Time;durP1;ratioP1;P1;durP2;ratioP2;P2;SDS_P1;SDS_P2;PMS_P1;PMS_P2;Temp;Humidity;BMP_temperature;BMP_pressure;BME280_temperature;BME280_humidity;BME280_pressure;Samples;Min_cycle;Max_cycle;Signal;HPM_P1;HPM_P2
2023/09/17 00:01:13;;;;;;;;;;;24.30;55.20;;;;;;5055965;28;20023;-60
2023/09/17 00:03:40;;;;;;;;;;;24.30;55.20;;;;;;5055764;28;20336;-61
2023/09/17 00:06:10;;;;;;;;;;;24.30;55.20;;;;;;5054445;28;20007;-61
2023/09/17 00:08:38;;;;;;;;;;;24.30;55.20;;;;;;5056034;28;19925;-61
2023/09/17 00:11:05;;;;;;;;;;;24.30;55.20;;;;;;5055902;28;19975;-61
2023/09/17 00:13:32;;;;;;;;;;;24.30;55.20;;;;;;5054688;28;20034;-61
2023/09/17 00:16:00;;;;;;;;;;;24.30;55.20;;;;;;5055421;28;19925;-61
2023/09/17 00:18:27;;;;;;;;;;;24.30;55.20;;;;;;5055476;28;19924;-61
2023/09/17 00:20:54;;;;;;;;;;;24.30;55.20;;;;;;5054721;28;19933;-61
2023/09/17 00:23:21;;;;;;;;;;;24.30;55.20;;;;;;5055476;28;19924;-61
2023/09/17 00:25:48;;;;;;;;;;;24.30;55.30;;;;;;5055283;28;19925;-61
2023/09/17 00:28:15;;;;;;;;;;;24.30;55.30;;;;;;5055251;28;19931;-61
2023/09/17 00:30:43;;;;;;;;;;;24.30;55.20;;;;;;5055168;28;19929;-59
2023/09/17 00:33:11;;;;;;;;;;;24.30;55.20;;;;;;5055215;28;20409;-59
2023/09/17 00:35:38;;;;;;;;;;;24.30;55.20;;;;;;5054067;28;20015;-59
2023/09/17 00:38:05;;;;;;;;;;;24.30;55.20;;;;;;5054218;28;20373;-59
2023/09/17 00:40:34;;;;;;;;;;;24.30;55.20;;;;;;5054908;28;19924;-59
2023/09/17 00:43:02;;;;;;;;;;;24.30;55.20;;;;;;5054924;28;19932;-59
2023/09/17 00:45:30;;;;;;;;;;;24.30;55.10;;;;;;5054813;28;19932;-59
2023/09/17 00:47:57;;;;;;;;;;;24.30;55.10;;;;;;5054894;28;19925;-59
2023/09/17 00:50:25;;;;;;;;;;;24.30;55.10;;;;;;5055181;28;19937;-59
2023/09/17 00:52:52;;;;;;;;;;;24.30;55.00;;;;;;5055077;28;19924;-59
2023/09/17 00:55:19;;;;;;;;;;;24.30;55.10;;;;;;5055122;28;19983;-59
2023/09/17 00:57:46;;;;;;;;;;;24.30;55.00;;;;;;5054729;28;20380;-59
2023/09/17 01:00:14;;;;;;;;;;;24.30;55.10;;;;;;5053487;28;19925;-59
2023/09/17 01:02:42;;;;;;;;;;;24.30;55.10;;;;;;5054589;28;19967;-59
2023/09/17 01:05:09;;;;;;;;;;;24.30;55.10;;;;;;5054817;28;19994;-59
2023/09/17 01:07:38;;;;;;;;;;;24.30;55.10;;;;;;5054338;28;19932;-59
2023/09/17 01:10:05;;;;;;;;;;;24.30;55.10;;;;;;5054824;28;19990;-59
2023/09/17 01:12:33;;;;;;;;;;;24.30;55.20;;;;;;5054383;28;19970;-59
2023/09/17 01:15:02;;;;;;;;;;;24.30;55.20;;;;;;5054179;28;19925;-59
2023/09/17 01:17:30;;;;;;;;;;;24.30;55.20;;;;;;5054233;28;20015;-59
2023/09/17 01:19:57;;;;;;;;;;;24.30;55.20;;;;;;5054091;28;19925;-59
2023/09/17 01:22:29;;;;;;;;;;;24.30;55.20;;;;;;5054285;28;19924;-59
2023/09/17 01:25:18;;;;;;;;;;;24.20;55.20;;;;;;5054543;28;19925;-59
2023/09/17 01:27:45;;;;;;;;;;;24.30;55.20;;;;;;5054302;28;20262;-59
2023/09/17 01:30:15;;;;;;;;;;;24.30;55.20;;;;;;5054477;28;19925;-59
2023/09/17 01:32:43;;;;;;;;;;;24.30;55.20;;;;;;5053676;28;20020;-59
2023/09/17 01:35:11;;;;;;;;;;;24.30;55.20;;;;;;5054514;28;19925;-59
2023/09/17 01:37:41;;;;;;;;;;;24.20;55.20;;;;;;5053899;28;19971;-59
2023/09/17 01:40:10;;;;;;;;;;;24.30;55.30;;;;;;5054304;28;19952;-59
2023/09/17 01:42:39;;;;;;;;;;;24.20;55.20;;;;;;5053589;28;19998;-59
2023/09/17 01:45:07;;;;;;;;;;;24.30;55.30;;;;;;5053903;28;19925;-59
2023/09/17 01:47:36;;;;;;;;;;;24.20;55.20;;;;;;5052898;28;20090;-59
2023/09/17 01:50:04;;;;;;;;;;;24.20;55.20;;;;;;5053802;28;19932;-59
2023/09/17 01:52:32;;;;;;;;;;;24.30;55.20;;;;;;5053955;28;19971;-59
2023/09/17 01:55:03;;;;;;;;;;;24.30;55.20;;;;;;5053815;28;20365;-59
2023/09/17 01:57:33;;;;;;;;;;;24.30;55.20;;;;;;5053687;28;19924;-60
2023/09/17 02:00:00;;;;;;;;;;;24.30;55.20;;;;;;5053928;28;19986;-59
2023/09/17 02:02:27;;;;;;;;;;;24.30;55.10;;;;;;5053397;28;19931;-59
2023/09/17 02:04:56;;;;;;;;;;;24.30;55.10;;;;;;5053433;28;19925;-59
2023/09/17 02:07:23;;;;;;;;;;;24.30;55.00;;;;;;5052819;28;20448;-59
2023/09/17 02:09:50;;;;;;;;;;;24.30;55.00;;;;;;5053639;28;19928;-59
2023/09/17 02:12:17;;;;;;;;;;;24.30;55.00;;;;;;5052209;28;20015;-59
2023/09/17 02:14:44;;;;;;;;;;;24.30;55.00;;;;;;5053477;28;19924;-59
2023/09/17 02:17:14;;;;;;;;;;;24.30;55.10;;;;;;5053310;28;19980;-59
2023/09/17 02:19:43;;;;;;;;;;;24.30;55.10;;;;;;5053514;28;20008;-59
2023/09/17 02:22:11;;;;;;;;;;;24.30;55.10;;;;;;5052121;28;20473;-59
2023/09/17 02:24:39;;;;;;;;;;;24.30;55.10;;;;;;5053675;28;19947;-59
2023/09/17 02:27:06;;;;;;;;;;;24.20;55.10;;;;;;5053435;28;20006;-59
2023/09/17 02:29:32;;;;;;;;;;;24.20;55.10;;;;;;5053804;28;19924;-59
2023/09/17 02:31:59;;;;;;;;;;;24.20;55.10;;;;;;5053086;28;19931;-59
2023/09/17 02:34:26;;;;;;;;;;;24.20;55.10;;;;;;5053663;28;19925;-59
2023/09/17 02:36:54;;;;;;;;;;;24.20;55.20;;;;;;5052960;28;19925;-59
2023/09/17 02:39:21;;;;;;;;;;;24.20;55.20;;;;;;5053425;28;19925;-59
2023/09/17 02:41:48;;;;;;;;;;;24.20;55.20;;;;;;5053060;28;19952;-59
2023/09/17 02:44:14;;;;;;;;;;;24.20;55.20;;;;;;5056841;28;19979;-59
2023/09/17 02:46:41;;;;;;;;;;;24.20;55.20;;;;;;5057400;28;20313;-59
2023/09/17 02:49:09;;;;;;;;;;;24.20;55.20;;;;;;5056034;28;20027;-59
2023/09/17 02:51:36;;;;;;;;;;;24.20;55.20;;;;;;5057054;28;20023;-59
2023/09/17 02:54:03;;;;;;;;;;;24.20;55.20;;;;;;5057420;28;19924;-59
2023/09/17 02:56:30;;;;;;;;;;;24.20;55.20;;;;;;5056893;28;19931;-59
2023/09/17 02:58:58;;;;;;;;;;;24.20;55.20;;;;;;5056058;28;19924;-59
2023/09/17 03:01:25;;;;;;;;;;;24.20;55.20;;;;;;5055733;28;20393;-59
2023/09/17 03:03:53;;;;;;;;;;;24.20;55.20;;;;;;5056708;28;19932;-59
2023/09/17 03:06:20;;;;;;;;;;;24.20;55.20;;;;;;5056835;28;20023;-59
2023/09/17 03:08:47;;;;;;;;;;;24.20;55.20;;;;;;5056958;28;19956;-59
2023/09/17 03:11:15;;;;;;;;;;;24.20;55.10;;;;;;5056938;28;19931;-59
2023/09/17 03:13:46;;;;;;;;;;;24.30;55.20;;;;;;5056720;28;19924;-60
2023/09/17 03:16:15;;;;;;;;;;;24.20;55.10;;;;;;5055533;28;19987;-59
2023/09/17 03:18:45;;;;;;;;;;;24.20;55.10;;;;;;5056925;28;20278;-61
2023/09/17 03:21:12;;;;;;;;;;;24.30;55.00;;;;;;5056513;28;20029;-59
2023/09/17 03:23:39;;;;;;;;;;;24.30;55.00;;;;;;5056824;28;20276;-59
2023/09/17 03:26:08;;;;;;;;;;;24.30;55.00;;;;;;5056754;28;19925;-59
2023/09/17 03:28:35;;;;;;;;;;;24.30;55.00;;;;;;5056301;28;20399;-59
2023/09/17 03:31:03;;;;;;;;;;;24.30;55.00;;;;;;5056726;28;19925;-59
2023/09/17 03:33:30;;;;;;;;;;;24.20;55.00;;;;;;5056319;28;19931;-59
2023/09/17 03:35:58;;;;;;;;;;;24.20;55.00;;;;;;5056253;28;19964;-59
2023/09/17 03:38:25;;;;;;;;;;;24.30;55.10;;;;;;5055785;28;20381;-59
2023/09/17 03:40:52;;;;;;;;;;;24.20;55.00;;;;;;5056109;28;20395;-60
2023/09/17 03:43:20;;;;;;;;;;;24.20;55.00;;;;;;5056067;28;19941;-59
2023/09/17 03:45:47;;;;;;;;;;;24.20;55.10;;;;;;5055975;28;19970;-61
2023/09/17 03:48:14;;;;;;;;;;;24.20;55.10;;;;;;5055654;28;19924;-59
2023/09/17 03:50:42;;;;;;;;;;;24.20;55.10;;;;;;5056295;28;19976;-59
2023/09/17 03:53:09;;;;;;;;;;;24.20;55.10;;;;;;5056262;28;19928;-60
2023/09/17 03:55:37;;;;;;;;;;;24.20;55.10;;;;;;5055140;28;20432;-60
2023/09/17 03:58:05;;;;;;;;;;;24.20;55.10;;;;;;5055194;28;19931;-59
2023/09/17 04:00:32;;;;;;;;;;;24.20;55.10;;;;;;5055890;28;19925;-59
2023/09/17 04:03:00;;;;;;;;;;;24.20;55.10;;;;;;5056015;28;19979;-59
2023/09/17 04:05:28;;;;;;;;;;;24.20;55.10;;;;;;5055807;28;19925;-59
2023/09/17 04:07:55;;;;;;;;;;;24.20;55.10;;;;;;5055736;28;20134;-60
2023/09/17 04:10:22;;;;;;;;;;;24.20;55.10;;;;;;5055752;28;19928;-59
2023/09/17 04:12:49;;;;;;;;;;;24.20;55.10;;;;;;5055740;28;19978;-59
2023/09/17 04:15:17;;;;;;;;;;;24.20;55.10;;;;;;5055918;28;19928;-60
2023/09/17 04:17:45;;;;;;;;;;;24.20;55.10;;;;;;5055482;28;19964;-59
2023/09/17 04:20:14;;;;;;;;;;;24.20;55.10;;;;;;5055779;28;19947;-60
2023/09/17 04:22:42;;;;;;;;;;;24.10;55.10;;;;;;5055375;28;19932;-59
2023/09/17 04:25:09;;;;;;;;;;;24.20;55.10;;;;;;5055365;28;19924;-60
2023/09/17 04:27:37;;;;;;;;;;;24.20;55.10;;;;;;5055031;28;19924;-60
2023/09/17 04:30:05;;;;;;;;;;;24.10;55.00;;;;;;5055586;28;19978;-60
2023/09/17 04:32:37;;;;;;;;;;;24.20;55.10;;;;;;5055028;28;19931;-60
2023/09/17 04:35:05;;;;;;;;;;;24.20;55.00;;;;;;5055136;28;19925;-60
2023/09/17 04:37:32;;;;;;;;;;;24.10;54.90;;;;;;5054979;28;19924;-60
2023/09/17 04:39:59;;;;;;;;;;;24.10;54.90;;;;;;5055541;28;19925;-60
2023/09/17 04:42:27;;;;;;;;;;;24.10;54.90;;;;;;5055211;28;19968;-60
2023/09/17 04:44:54;;;;;;;;;;;23.90;54.90;;;;;;5055325;28;19970;-60
2023/09/17 04:47:20;;;;;;;;;;;23.80;55.30;;;;;;5054788;28;20688;-60
2023/09/17 04:49:47;;;;;;;;;;;23.50;55.40;;;;;;5054425;28;20023;-59
2023/09/17 04:52:15;;;;;;;;;;;23.30;54.10;;;;;;5054890;28;19931;-59
2023/09/17 04:54:42;;;;;;;;;;;23.00;53.00;;;;;;5055133;28;20363;-59
2023/09/17 04:57:09;;;;;;;;;;;22.80;51.20;;;;;;5054604;28;19975;-59
2023/09/17 04:59:36;;;;;;;;;;;22.50;51.20;;;;;;5054783;28;19929;-59
2023/09/17 05:02:03;;;;;;;;;;;22.20;51.00;;;;;;5054683;28;19972;-60
2023/09/17 05:04:30;;;;;;;;;;;21.90;51.30;;;;;;5054455;28;19924;-59
2023/09/17 05:06:59;;;;;;;;;;;21.60;50.20;;;;;;5052382;28;19925;-59
2023/09/17 05:09:26;;;;;;;;;;;21.30;51.20;;;;;;5054675;28;20339;-59
2023/09/17 05:11:53;;;;;;;;;;;21.00;53.30;;;;;;5054947;28;20011;-59
2023/09/17 05:14:20;;;;;;;;;;;20.70;52.80;;;;;;5054758;28;19925;-59
2023/09/17 05:16:47;;;;;;;;;;;20.60;52.80;;;;;;5053883;28;20019;-59
2023/09/17 05:19:14;;;;;;;;;;;20.30;52.50;;;;;;5053507;28;19928;-59
2023/09/17 05:21:41;;;;;;;;;;;20.10;54.10;;;;;;5053390;28;19976;-59
2023/09/17 05:24:08;;;;;;;;;;;20.00;53.50;;;;;;5054414;28;20355;-59
2023/09/17 05:26:34;;;;;;;;;;;19.80;52.70;;;;;;5054276;28;19972;-59
2023/09/17 05:29:01;;;;;;;;;;;19.70;54.30;;;;;;5054247;28;19925;-59
2023/09/17 05:31:30;;;;;;;;;;;19.60;54.20;;;;;;5053878;28;19924;-59
2023/09/17 05:33:57;;;;;;;;;;;19.50;52.80;;;;;;5054161;28;19975;-59
2023/09/17 05:36:24;;;;;;;;;;;19.40;53.00;;;;;;5054039;28;19981;-59
2023/09/17 05:38:51;;;;;;;;;;;19.20;54.80;;;;;;5054247;28;19924;-59
2023/09/17 05:41:18;;;;;;;;;;;19.20;52.80;;;;;;5054048;28;19977;-60
2023/09/17 05:43:45;;;;;;;;;;;19.10;52.90;;;;;;5052669;28;19924;-59
2023/09/17 05:46:12;;;;;;;;;;;19.10;53.60;;;;;;5054083;28;20011;-60
2023/09/17 05:48:40;;;;;;;;;;;19.00;53.70;;;;;;5054171;28;19925;-59
2023/09/17 05:51:07;;;;;;;;;;;19.00;53.00;;;;;;5053698;28;19929;-61
2023/09/17 05:53:35;;;;;;;;;;;18.90;55.20;;;;;;5053830;28;19925;-60
2023/09/17 05:56:04;;;;;;;;;;;18.90;54.70;;;;;;5054035;28;19924;-59
2023/09/17 05:58:31;;;;;;;;;;;18.80;53.50;;;;;;5053599;28;20346;-60
2023/09/17 06:00:58;;;;;;;;;;;18.80;53.40;;;;;;5052668;28;20381;-59
2023/09/17 06:03:25;;;;;;;;;;;18.80;54.80;;;;;;5053759;28;19978;-59
2023/09/17 06:05:55;;;;;;;;;;;18.70;53.20;;;;;;5053058;28;19932;-60
2023/09/17 06:08:22;;;;;;;;;;;18.70;52.80;;;;;;5053891;28;19925;-60
2023/09/17 06:10:49;;;;;;;;;;;18.70;54.50;;;;;;5053696;28;19925;-60
2023/09/17 06:13:17;;;;;;;;;;;18.70;55.30;;;;;;5053529;28;19924;-61
2023/09/17 06:15:45;;;;;;;;;;;18.70;53.30;;;;;;5053235;28;20336;-61
2023/09/17 06:18:12;;;;;;;;;;;18.60;54.00;;;;;;5053212;28;19925;-61
2023/09/17 06:20:39;;;;;;;;;;;18.60;55.40;;;;;;5053288;28;19925;-60
2023/09/17 06:23:06;;;;;;;;;;;18.60;53.60;;;;;;5053395;28;19925;-60
2023/09/17 06:25:33;;;;;;;;;;;18.50;53.30;;;;;;5053174;28;20293;-60
2023/09/17 06:28:00;;;;;;;;;;;18.50;54.60;;;;;;5053533;28;20015;-60
2023/09/17 06:30:27;;;;;;;;;;;18.50;54.90;;;;;;5053357;28;19998;-60
2023/09/17 06:32:54;;;;;;;;;;;18.50;54.00;;;;;;5053298;28;20420;-60
2023/09/17 06:35:21;;;;;;;;;;;18.50;54.20;;;;;;5053076;28;19978;-60
2023/09/17 06:37:49;;;;;;;;;;;18.40;54.80;;;;;;5053209;28;20422;-60
2023/09/17 06:40:17;;;;;;;;;;;18.50;54.80;;;;;;5053290;28;20300;-60
2023/09/17 06:42:44;;;;;;;;;;;18.40;54.30;;;;;;5053351;28;19980;-60
2023/09/17 06:45:11;;;;;;;;;;;18.40;55.70;;;;;;5053090;28;20419;-60
2023/09/17 06:47:38;;;;;;;;;;;18.40;55.30;;;;;;5053049;28;19924;-60
2023/09/17 06:50:07;;;;;;;;;;;18.30;54.50;;;;;;5068288;28;19924;-60
2023/09/17 06:52:34;;;;;;;;;;;18.30;55.40;;;;;;5052974;28;19979;-61
2023/09/17 06:55:01;;;;;;;;;;;18.30;55.90;;;;;;5053326;28;19932;-60
2023/09/17 06:57:28;;;;;;;;;;;18.20;55.50;;;;;;5052651;28;19925;-60
2023/09/17 06:59:55;;;;;;;;;;;18.20;58.90;;;;;;5053427;28;19925;-60
2023/09/17 07:02:22;;;;;;;;;;;18.20;59.60;;;;;;5053307;28;19963;-60
2023/09/17 07:04:49;;;;;;;;;;;18.10;56.80;;;;;;5052851;28;20423;-60
2023/09/17 07:07:16;;;;;;;;;;;18.10;58.10;;;;;;5052856;28;20289;-60
2023/09/17 07:09:43;;;;;;;;;;;18.10;59.60;;;;;;5053146;28;20341;-60
2023/09/17 07:12:10;;;;;;;;;;;18.10;59.20;;;;;;5052849;28;19955;-60
2023/09/17 07:14:37;;;;;;;;;;;18.10;59.10;;;;;;5053188;28;19998;-60
2023/09/17 07:17:04;;;;;;;;;;;18.10;59.20;;;;;;5053111;28;19924;-60
2023/09/17 07:19:33;;;;;;;;;;;18.10;60.80;;;;;;5053210;28;19925;-60
2023/09/17 07:22:00;;;;;;;;;;;18.10;60.10;;;;;;5053125;28;19924;-60
2023/09/17 07:24:27;;;;;;;;;;;18.00;58.80;;;;;;5052770;28;19929;-60
2023/09/17 07:26:54;;;;;;;;;;;18.10;59.20;;;;;;5052730;28;19970;-60
2023/09/17 07:29:21;;;;;;;;;;;18.10;60.00;;;;;;5052191;28;19925;-60
2023/09/17 07:31:48;;;;;;;;;;;18.10;60.50;;;;;;5056627;28;19924;-60
2023/09/17 07:34:15;;;;;;;;;;;18.10;59.70;;;;;;5056669;28;20352;-60
2023/09/17 07:36:42;;;;;;;;;;;18.10;58.70;;;;;;5056126;28;19924;-60
2023/09/17 07:39:09;;;;;;;;;;;18.20;60.20;;;;;;5056306;28;19970;-60
2023/09/17 07:41:36;;;;;;;;;;;18.20;59.60;;;;;;5056030;28;19924;-60
2023/09/17 07:44:03;;;;;;;;;;;18.20;60.30;;;;;;5056060;28;20388;-60
2023/09/17 07:46:31;;;;;;;;;;;18.20;60.30;;;;;;5054901;28;19951;-60
2023/09/17 07:49:00;;;;;;;;;;;18.30;58.70;;;;;;5055895;28;19925;-60
2023/09/17 07:51:27;;;;;;;;;;;18.30;58.30;;;;;;5055034;28;20019;-60
2023/09/17 07:53:54;;;;;;;;;;;18.40;57.80;;;;;;5055968;28;19924;-60
2023/09/17 07:56:21;;;;;;;;;;;18.40;58.00;;;;;;5056009;28;20274;-60
2023/09/17 07:58:51;;;;;;;;;;;18.40;58.10;;;;;;5054918;28;20263;-60
2023/09/17 08:01:18;;;;;;;;;;;18.40;57.40;;;;;;5055751;28;20339;-60
2023/09/17 08:03:45;;;;;;;;;;;18.50;58.80;;;;;;5055858;28;19928;-60
2023/09/17 08:06:12;;;;;;;;;;;18.50;58.60;;;;;;5055462;28;19925;-60
2023/09/17 08:08:39;;;;;;;;;;;18.50;57.30;;;;;;5054561;28;20376;-60
2023/09/17 08:11:07;;;;;;;;;;;18.60;57.60;;;;;;5055868;28;20012;-60
2023/09/17 08:13:34;;;;;;;;;;;18.60;59.10;;;;;;5055641;28;19932;-60
2023/09/17 08:16:01;;;;;;;;;;;18.60;58.80;;;;;;5055925;28;19929;-60
2023/09/17 08:18:28;;;;;;;;;;;18.60;58.60;;;;;;5055638;28;20262;-60
2023/09/17 08:20:55;;;;;;;;;;;18.60;61.30;;;;;;5055521;28;19925;-60
2023/09/17 08:23:21;;;;;;;;;;;18.60;61.30;;;;;;5055542;28;19925;-60
2023/09/17 08:25:50;;;;;;;;;;;18.60;60.50;;;;;;5055113;28;19928;-60
2023/09/17 08:28:17;;;;;;;;;;;18.50;61.00;;;;;;5055239;28;19935;-60
2023/09/17 08:30:45;;;;;;;;;;;18.60;61.70;;;;;;5055502;28;19924;-60
2023/09/17 08:33:13;;;;;;;;;;;18.50;61.90;;;;;;5055705;28;20336;-60
2023/09/17 08:35:40;;;;;;;;;;;18.50;61.90;;;;;;5055131;28;20019;-60
2023/09/17 08:38:06;;;;;;;;;;;18.50;61.90;;;;;;5054427;28;19925;-61
2023/09/17 08:40:34;;;;;;;;;;;18.50;62.30;;;;;;5055145;28;19971;-60
2023/09/17 08:43:02;;;;;;;;;;;18.50;62.60;;;;;;5054849;28;20019;-60
2023/09/17 08:45:30;;;;;;;;;;;18.50;62.50;;;;;;5054586;28;19924;-60
2023/09/17 08:47:57;;;;;;;;;;;18.50;63.00;;;;;;5055280;28;20019;-60
2023/09/17 08:50:25;;;;;;;;;;;18.50;63.00;;;;;;5053867;28;20348;-60
2023/09/17 08:52:54;;;;;;;;;;;18.50;63.00;;;;;;5054819;28;19975;-60
2023/09/17 08:55:21;;;;;;;;;;;18.50;63.10;;;;;;5054886;28;20024;-60
2023/09/17 08:57:55;;;;;;;;;;;18.50;62.70;;;;;;5054904;28;20330;-60
2023/09/17 09:00:22;;;;;;;;;;;18.50;63.20;;;;;;5054813;28;20423;-60
2023/09/17 09:02:51;;;;;;;;;;;18.60;62.70;;;;;;5054771;28;19925;-60
2023/09/17 09:05:19;;;;;;;;;;;18.60;63.50;;;;;;5053622;28;20273;-60
2023/09/17 09:07:47;;;;;;;;;;;18.60;63.30;;;;;;5053518;28;19924;-61
2023/09/17 09:10:14;;;;;;;;;;;18.60;63.30;;;;;;5054356;28;19925;-60
2023/09/17 09:12:42;;;;;;;;;;;18.60;64.00;;;;;;5054694;28;20344;-61
2023/09/17 09:15:12;;;;;;;;;;;18.70;64.40;;;;;;5054645;28;19968;-60
2023/09/17 09:17:39;;;;;;;;;;;18.70;63.80;;;;;;5054357;28;20554;-60
2023/09/17 09:20:09;;;;;;;;;;;18.80;63.80;;;;;;5054163;28;19924;-60
2023/09/17 09:22:37;;;;;;;;;;;18.80;63.40;;;;;;5054261;28;19932;-60
2023/09/17 09:25:06;;;;;;;;;;;18.80;63.80;;;;;;5054227;28;19925;-60
2023/09/17 09:27:33;;;;;;;;;;;18.80;63.80;;;;;;5054426;28;19947;-60
2023/09/17 09:30:03;;;;;;;;;;;18.90;64.10;;;;;;5054041;28;19924;-60
2023/09/17 09:32:30;;;;;;;;;;;18.90;63.90;;;;;;5054055;28;20430;-60
2023/09/17 09:34:57;;;;;;;;;;;19.00;64.10;;;;;;5054303;28;20340;-60
2023/09/17 09:37:24;;;;;;;;;;;19.00;64.60;;;;;;5053868;28;19925;-60
2023/09/17 09:39:52;;;;;;;;;;;18.90;64.50;;;;;;5054213;28;19928;-60
2023/09/17 09:42:20;;;;;;;;;;;19.10;63.60;;;;;;5053748;28;20016;-60
2023/09/17 09:44:47;;;;;;;;;;;19.10;64.00;;;;;;5053838;28;20024;-60
2023/09/17 09:47:14;;;;;;;;;;;19.10;63.90;;;;;;5054151;28;20426;-60
2023/09/17 09:49:42;;;;;;;;;;;19.10;63.90;;;;;;5054000;28;20339;-60
2023/09/17 09:52:11;;;;;;;;;;;19.10;62.90;;;;;;5053157;28;19924;-60
2023/09/17 09:54:39;;;;;;;;;;;19.10;63.50;;;;;;5053775;28;19983;-60
2023/09/17 09:57:06;;;;;;;;;;;19.10;62.80;;;;;;5053880;28;20351;-60
2023/09/17 09:59:34;;;;;;;;;;;19.20;62.20;;;;;;5053990;28;19978;-60
2023/09/17 10:02:05;;;;;;;;;;;19.10;62.40;;;;;;5053862;28;19932;-60
2023/09/17 10:04:37;;;;;;;;;;;19.10;62.20;;;;;;5053525;28;19924;-60
2023/09/17 10:07:05;;;;;;;;;;;19.10;62.30;;;;;;5053473;28;19932;-60
2023/09/17 10:09:31;;;;;;;;;;;19.10;63.00;;;;;;5053809;28;20051;-60
2023/09/17 10:11:59;;;;;;;;;;;19.20;62.20;;;;;;5053683;28;20040;-60
2023/09/17 10:14:26;;;;;;;;;;;19.10;61.50;;;;;;5053807;28;19987;-60
2023/09/17 10:16:54;;;;;;;;;;;19.10;62.20;;;;;;5053249;28;20431;-61
2023/09/17 10:19:22;;;;;;;;;;;19.10;61.50;;;;;;5053444;28;20278;-60
2023/09/17 10:21:49;;;;;;;;;;;19.10;61.60;;;;;;5053624;28;19991;-60
2023/09/17 10:24:17;;;;;;;;;;;19.00;61.40;;;;;;5068711;28;19983;-60
2023/09/17 10:26:45;;;;;;;;;;;19.00;61.40;;;;;;5053259;28;19925;-60
2023/09/17 10:29:13;;;;;;;;;;;19.00;61.60;;;;;;5053446;28;20023;-60
2023/09/17 10:31:42;;;;;;;;;;;19.00;61.80;;;;;;5053339;28;19967;-60
2023/09/17 10:34:09;;;;;;;;;;;19.00;62.40;;;;;;5053300;28;19925;-60
2023/09/17 10:36:38;;;;;;;;;;;19.00;61.90;;;;;;5053106;28;20011;-60
2023/09/17 10:39:06;;;;;;;;;;;19.00;62.50;;;;;;5053153;28;20011;-60
2023/09/17 10:41:36;;;;;;;;;;;18.90;62.80;;;;;;5053048;28;19925;-60
2023/09/17 10:44:04;;;;;;;;;;;19.00;63.00;;;;;;5053809;28;20008;-60
2023/09/17 10:46:31;;;;;;;;;;;19.10;62.00;;;;;;5052991;28;19924;-60
2023/09/17 10:48:59;;;;;;;;;;;19.10;62.40;;;;;;5053583;28;19934;-61
2023/09/17 10:51:26;;;;;;;;;;;19.10;61.70;;;;;;5053023;28;19964;-60
2023/09/17 10:53:54;;;;;;;;;;;19.10;61.30;;;;;;5053178;28;20381;-60
2023/09/17 10:56:21;;;;;;;;;;;19.10;61.30;;;;;;5053477;28;19971;-60
2023/09/17 10:58:49;;;;;;;;;;;19.10;61.60;;;;;;5053549;28;20392;-60
2023/09/17 11:01:22;;;;;;;;;;;19.10;61.60;;;;;;5053087;28;20400;-60
2023/09/17 11:03:52;;;;;;;;;;;19.00;61.70;;;;;;5054660;28;20004;-60
2023/09/17 11:06:24;;;;;;;;;;;19.00;61.30;;;;;;5055562;28;19980;-60
2023/09/17 11:08:52;;;;;;;;;;;19.00;61.20;;;;;;5057200;28;20280;-60
2023/09/17 11:11:20;;;;;;;;;;;19.00;61.30;;;;;;5056881;28;20019;-60
2023/09/17 11:13:47;;;;;;;;;;;19.00;61.00;;;;;;5057124;28;19972;-60
2023/09/17 11:16:14;;;;;;;;;;;19.00;60.70;;;;;;5056682;28;19925;-60
2023/09/17 11:18:45;;;;;;;;;;;19.10;60.80;;;;;;5056365;28;20369;-60
2023/09/17 11:21:12;;;;;;;;;;;19.00;60.90;;;;;;5056985;28;19925;-60
2023/09/17 11:23:44;;;;;;;;;;;19.00;60.70;;;;;;5056582;28;19924;-60
2023/09/17 11:26:15;;;;;;;;;;;19.10;61.00;;;;;;5056483;28;19931;-60
2023/09/17 11:28:42;;;;;;;;;;;19.00;61.90;;;;;;5056451;28;19925;-60
2023/09/17 11:31:10;;;;;;;;;;;19.00;60.90;;;;;;5056292;28;19929;-63
2023/09/17 11:33:37;;;;;;;;;;;19.10;61.50;;;;;;5056356;28;19975;-60
2023/09/17 11:36:04;;;;;;;;;;;19.00;61.40;;;;;;5056168;28;20393;-60
2023/09/17 11:38:32;;;;;;;;;;;19.00;61.80;;;;;;5055812;28;19951;-59
2023/09/17 11:41:06;;;;;;;;;;;19.10;61.70;;;;;;5056509;28;20008;-59
2023/09/17 11:43:37;;;;;;;;;;;19.10;62.20;;;;;;5056231;28;19968;-60
2023/09/17 11:46:06;;;;;;;;;;;19.20;62.10;;;;;;5056017;28;19927;-60
2023/09/17 11:48:34;;;;;;;;;;;19.20;62.20;;;;;;5056173;28;19986;-60
2023/09/17 11:51:21;;;;;;;;;;;19.20;62.10;;;;;;5056263;28;20332;-60
2023/09/17 11:53:56;;;;;;;;;;;19.30;61.70;;;;;;5055951;28;19925;-60
2023/09/17 11:56:25;;;;;;;;;;;19.30;62.30;;;;;;5054633;28;19991;-60
2023/09/17 11:59:06;;;;;;;;;;;19.40;62.10;;;;;;5055669;28;19968;-60
2023/09/17 12:01:35;;;;;;;;;;;19.40;61.70;;;;;;5055794;28;20377;-60
2023/09/17 12:04:03;;;;;;;;;;;19.40;61.70;;;;;;5056228;28;20344;-60
2023/09/17 12:06:31;;;;;;;;;;;19.50;61.80;;;;;;5055773;28;19932;-60
2023/09/17 12:09:15;;;;;;;;;;;19.50;61.80;;;;;;5071441;28;19925;-60
2023/09/17 12:11:44;;;;;;;;;;;19.50;62.00;;;;;;5055806;28;19924;-60
2023/09/17 12:14:12;;;;;;;;;;;19.60;61.90;;;;;;5055844;28;20069;-60
2023/09/17 12:16:39;;;;;;;;;;;19.60;61.90;;;;;;5054911;28;20033;-60
2023/09/17 12:19:07;;;;;;;;;;;19.60;62.00;;;;;;5055614;28;19924;-60
2023/09/17 12:21:48;;;;;;;;;;;19.70;62.10;;;;;;5055424;28;19998;-60
2023/09/17 12:24:46;;;;;;;;;;;19.60;61.80;;;;;;5055425;28;20031;-60
2023/09/17 12:27:36;;;;;;;;;;;19.70;61.90;;;;;;5055359;28;19925;-60
2023/09/17 12:30:05;;;;;;;;;;;19.80;62.10;;;;;;5055632;28;19964;-60
2023/09/17 12:32:34;;;;;;;;;;;19.80;61.60;;;;;;5055458;28;19964;-60
2023/09/17 12:35:02;;;;;;;;;;;19.80;61.60;;;;;;5055358;28;20377;-60
2023/09/17 12:37:30;;;;;;;;;;;19.90;61.60;;;;;;5053832;28;20397;-60
2023/09/17 12:39:57;;;;;;;;;;;19.90;61.60;;;;;;5055137;28;19925;-60
2023/09/17 12:42:24;;;;;;;;;;;19.90;60.90;;;;;;5054050;28;19974;-60
2023/09/17 12:44:52;;;;;;;;;;;19.90;61.30;;;;;;5055315;28;19924;-60
2023/09/17 12:47:19;;;;;;;;;;;20.00;61.00;;;;;;5054900;28;20472;-60
2023/09/17 12:49:46;;;;;;;;;;;20.00;60.50;;;;;;5055043;28;20039;-60
2023/09/17 12:52:15;;;;;;;;;;;20.00;61.30;;;;;;5054771;28;20315;-59
2023/09/17 12:54:42;;;;;;;;;;;20.10;61.40;;;;;;5055288;28;20262;-60
2023/09/17 12:57:09;;;;;;;;;;;20.10;61.10;;;;;;5053463;28;19936;-60
2023/09/17 12:59:39;;;;;;;;;;;20.20;60.60;;;;;;5054895;28;19925;-60
2023/09/17 13:02:06;;;;;;;;;;;20.20;60.60;;;;;;5054764;28;19964;-60
2023/09/17 13:04:38;;;;;;;;;;;20.20;60.90;;;;;;5054909;28;20347;-60
2023/09/17 13:07:17;;;;;;;;;;;20.20;60.70;;;;;;5054520;28;19925;-60
2023/09/17 13:09:45;;;;;;;;;;;20.20;60.60;;;;;;5054884;28;19925;-60
2023/09/17 13:12:18;;;;;;;;;;;20.20;60.40;;;;;;5054296;28;19924;-60
2023/09/17 13:14:47;;;;;;;;;;;20.30;60.90;;;;;;5054568;28;19978;-60
2023/09/17 13:17:15;;;;;;;;;;;20.20;60.70;;;;;;5054373;28;20412;-59
2023/09/17 13:19:42;;;;;;;;;;;20.30;60.70;;;;;;5054721;28;20301;-60
2023/09/17 13:22:11;;;;;;;;;;;20.30;60.50;;;;;;5054368;28;19935;-60
2023/09/17 13:24:43;;;;;;;;;;;20.30;60.60;;;;;;5054736;28;19932;-60
2023/09/17 13:27:11;;;;;;;;;;;20.30;60.30;;;;;;5052261;28;19940;-60
2023/09/17 13:29:40;;;;;;;;;;;20.30;60.30;;;;;;5054423;28;19947;-60
2023/09/17 13:32:09;;;;;;;;;;;20.20;60.00;;;;;;5054358;28;19979;-60
2023/09/17 13:34:40;;;;;;;;;;;20.30;60.20;;;;;;5054075;28;19932;-60
2023/09/17 13:37:08;;;;;;;;;;;20.30;60.00;;;;;;5053955;28;19925;-60
2023/09/17 13:39:39;;;;;;;;;;;20.30;60.40;;;;;;5054103;28;19931;-60
2023/09/17 13:42:06;;;;;;;;;;;20.20;60.40;;;;;;5053013;28;19925;-60
2023/09/17 13:44:36;;;;;;;;;;;20.30;60.00;;;;;;5054083;28;19925;-60
2023/09/17 13:47:05;;;;;;;;;;;20.30;60.10;;;;;;5053835;28;20015;-60
2023/09/17 13:49:32;;;;;;;;;;;20.30;59.90;;;;;;5053807;28;19932;-60
2023/09/17 13:51:59;;;;;;;;;;;20.30;60.30;;;;;;5052595;28;20384;-60
2023/09/17 13:54:26;;;;;;;;;;;20.30;60.40;;;;;;5054155;28;20412;-60
2023/09/17 13:56:53;;;;;;;;;;;20.30;60.00;;;;;;5053844;28;19925;-59
2023/09/17 13:59:20;;;;;;;;;;;20.30;60.40;;;;;;5054106;28;19987;-60
2023/09/17 14:01:48;;;;;;;;;;;20.30;60.00;;;;;;5053688;28;20026;-60
2023/09/17 14:04:15;;;;;;;;;;;20.20;60.20;;;;;;5053754;28;19925;-60
2023/09/17 14:06:42;;;;;;;;;;;20.30;65.20;;;;;;5052322;28;19925;-60
2023/09/17 14:09:09;;;;;;;;;;;20.50;71.10;;;;;;5053840;28;19971;-60
2023/09/17 14:11:37;;;;;;;;;;;20.70;73.80;;;;;;5053813;28;19925;-60
2023/09/17 14:14:04;;;;;;;;;;;21.00;74.80;;;;;;5053848;28;19987;-60
2023/09/17 14:16:31;;;;;;;;;;;21.30;75.00;;;;;;5053575;28;19925;-60
2023/09/17 14:18:58;;;;;;;;;;;21.50;75.10;;;;;;5052688;28;19924;-60
2023/09/17 14:21:25;;;;;;;;;;;21.70;74.70;;;;;;5053292;28;20297;-60